sensor_id;sensor_type;location;lat;lon;timestamp;pressure;altitude;pressure_sealevel;temperature;humidity
48053;BME280;33824;51.600;5.718;2023-05-11T00:01:31;101237.97;;;14.05;100.00
48053;BME280;33824;51.600;5.718;2023-05-11T00:03:56;101249.34;;;14.07;100.00
48053;BME280;33824;51.600;5.718;2023-05-11T00:06:22;101247.97;;;14.11;100.00
48053;BME280;33824;51.600;5.718;2023-05-11T00:08:47;101252.94;;;14.14;100.00
48053;BME280;33824;51.600;5.718;2023-05-11T00:11:13;101241.66;;;14.19;100.00
48053;BME280;33824;51.600;5.718;2023-05-11T00:13:39;101242.47;;;14.19;100.00
48053;BME280;33824;51.600;5.718;2023-05-11T00:16:04;101250.72;;;14.18;100.00
48053;BME280;33824;51.600;5.718;2023-05-11T00:18:30;101239.78;;;14.19;100.00
48053;BME280;33824;51.600;5.718;2023-05-11T00:20:55;101239.78;;;14.19;100.00
48053;BME280;33824;51.600;5.718;2023-05-11T00:23:21;101241.84;;;14.17;100.00
48053;BME280;33824;51.600;5.718;2023-05-11T00:25:47;101247.19;;;14.17;100.00
48053;BME280;33824;51.600;5.718;2023-05-11T00:28:12;101241.38;;;14.14;100.00
48053;BME280;33824;51.600;5.718;2023-05-11T00:30:41;101239.63;;;14.06;100.00
48053;BME280;33824;51.600;5.718;2023-05-11T00:33:06;101243.97;;;14.07;100.00
48053;BME280;33824;51.600;5.718;2023-05-11T00:35:32;101238.78;;;14.06;100.00
48053;BME280;33824;51.600;5.718;2023-05-11T00:37:58;101235.28;;;14.05;100.00
48053;BME280;33824;51.600;5.718;2023-05-11T00:40:24;101235.75;;;13.94;100.00
48053;BME280;33824;51.600;5.718;2023-05-11T00:42:50;101232.00;;;13.88;100.00
48053;BME280;33824;51.600;5.718;2023-05-11T00:45:15;101231.16;;;13.88;100.00
48053;BME280;33824;51.600;5.718;2023-05-11T00:47:41;101235.28;;;13.90;100.00
48053;BME280;33824;51.600;5.718;2023-05-11T00:50:07;101229.09;;;13.90;100.00
48053;BME280;33824;51.600;5.718;2023-05-11T00:52:33;101233.25;;;13.92;100.00
48053;BME280;33824;51.600;5.718;2023-05-11T00:54:59;101232.91;;;13.96;100.00
48053;BME280;33824;51.600;5.718;2023-05-11T00:57:25;101234.81;;;14.02;100.00
48053;BME280;33824;51.600;5.718;2023-05-11T00:59:50;101225.56;;;14.04;100.00
48053;BME280;33824;51.600;5.718;2023-05-11T01:02:16;101237.97;;;14.05;100.00
48053;BME280;33824;51.600;5.718;2023-05-11T01:04:43;101236.50;;;14.03;100.00
48053;BME280;33824;51.600;5.718;2023-05-11T01:07:19;101233.25;;;13.92;100.00
48053;BME280;33824;51.600;5.718;2023-05-11T01:12:38;101237.25;;;13.82;100.00
48053;BME280;33824;51.600;5.718;2023-05-11T01:15:13;101238.63;;;13.92;100.00
48053;BME280;33824;51.600;5.718;2023-05-11T01:17:49;101248.25;;;13.87;100.00
48053;BME280;33824;51.600;5.718;2023-05-11T01:20:21;101246.31;;;13.96;100.00
48053;BME280;33824;51.600;5.718;2023-05-11T01:26:23;101248.25;;;13.87;100.00
48053;BME280;33824;51.600;5.718;2023-05-11T01:29:09;101249.09;;;13.87;100.00
48053;BME280;33824;51.600;5.718;2023-05-11T01:31:39;101248.78;;;13.97;100.00
48053;BME280;33824;51.600;5.718;2023-05-11T01:34:12;101254.97;;;13.98;100.00
48053;BME280;33824;51.600;5.718;2023-05-11T01:36:50;101245.16;;;14.05;100.00
48053;BME280;33824;51.600;5.718;2023-05-11T01:39:20;101251.81;;;14.09;100.00
48053;BME280;33824;51.600;5.718;2023-05-11T01:41:51;101247.28;;;14.09;100.00
48053;BME280;33824;51.600;5.718;2023-05-11T01:44:18;101257.00;;;14.10;100.00
48053;BME280;33824;51.600;5.718;2023-05-11T01:46:46;101256.00;;;14.11;100.00
48053;BME280;33824;51.600;5.718;2023-05-11T01:49:13;101256.19;;;14.10;100.00
48053;BME280;33824;51.600;5.718;2023-05-11T01:51:41;101259.25;;;14.07;100.00
48053;BME280;33824;51.600;5.718;2023-05-11T01:54:08;101259.50;;;14.12;100.00
48053;BME280;33824;51.600;5.718;2023-05-11T01:56:36;101263.91;;;14.19;100.00
48053;BME280;33824;51.600;5.718;2023-05-11T01:59:03;101263.56;;;14.22;100.00
48053;BME280;33824;51.600;5.718;2023-05-11T02:01:30;101262.97;;;14.27;100.00
48053;BME280;33824;51.600;5.718;2023-05-11T02:03:59;101264.84;;;14.26;100.00
48053;BME280;33824;51.600;5.718;2023-05-11T02:06:28;101264.66;;;14.28;100.00
48053;BME280;33824;51.600;5.718;2023-05-11T02:08:57;101265.75;;;14.33;100.00
48053;BME280;33824;51.600;5.718;2023-05-11T02:11:25;101266.16;;;14.30;100.00
48053;BME280;33824;51.600;5.718;2023-05-11T02:13:54;101267.34;;;14.28;100.00
48053;BME280;33824;51.600;5.718;2023-05-11T02:16:21;101259.94;;;14.30;100.00
48053;BME280;33824;51.600;5.718;2023-05-11T02:18:47;101263.25;;;14.32;100.00
48053;BME280;33824;51.600;5.718;2023-05-11T02:21:15;101267.44;;;14.34;100.00
48053;BME280;33824;51.600;5.718;2023-05-11T02:23:42;101260.41;;;14.33;100.00
48053;BME280;33824;51.600;5.718;2023-05-11T02:26:09;101262.72;;;14.36;100.00
48053;BME280;33824;51.600;5.718;2023-05-11T02:28:39;101253.09;;;14.42;100.00
48053;BME280;33824;51.600;5.718;2023-05-11T02:31:08;101256.97;;;14.39;100.00
48053;BME280;33824;51.600;5.718;2023-05-11T02:33:42;101249.50;;;14.35;100.00
48053;BME280;33824;51.600;5.718;2023-05-11T02:36:09;101254.50;;;14.38;100.00
48053;BME280;33824;51.600;5.718;2023-05-11T02:38:38;101253.00;;;14.35;100.00
48053;BME280;33824;51.600;5.718;2023-05-11T02:41:11;101248.56;;;14.28;100.00
48053;BME280;33824;51.600;5.718;2023-05-11T02:43:43;101244.97;;;14.21;100.00
48053;BME280;33824;51.600;5.718;2023-05-11T02:46:14;101248.47;;;14.21;100.00
48053;BME280;33824;51.600;5.718;2023-05-11T02:48:48;101247.38;;;14.16;100.00
48053;BME280;33824;51.600;5.718;2023-05-11T02:51:16;101250.50;;;14.19;100.00
48053;BME280;33824;51.600;5.718;2023-05-11T02:53:42;101248.03;;;14.18;100.00
48053;BME280;33824;51.600;5.718;2023-05-11T02:56:09;101250.72;;;14.18;100.00
48053;BME280;33824;51.600;5.718;2023-05-11T02:58:35;101241.38;;;14.14;100.00
48053;BME280;33824;51.600;5.718;2023-05-11T03:01:01;101246.56;;;14.01;100.00
48053;BME280;33824;51.600;5.718;2023-05-11T03:03:31;101247.41;;;13.86;100.00
48053;BME280;33824;51.600;5.718;2023-05-11T03:05:56;101247.50;;;13.78;100.00
48053;BME280;33824;51.600;5.718;2023-05-11T03:08:22;101252.78;;;13.72;100.00
48053;BME280;33824;51.600;5.718;2023-05-11T03:10:50;101249.16;;;13.65;100.00
48053;BME280;33824;51.600;5.718;2023-05-11T03:13:18;101249.44;;;13.55;100.00
48053;BME280;33824;51.600;5.718;2023-05-11T03:15:46;101242.59;;;13.53;100.00
48053;BME280;33824;51.600;5.718;2023-05-11T03:18:12;101249.97;;;13.51;100.00
48053;BME280;33824;51.600;5.718;2023-05-11T03:20:39;101254.06;;;13.47;100.00
48053;BME280;33824;51.600;5.718;2023-05-11T03:23:07;101255.91;;;13.46;100.00
48053;BME280;33824;51.600;5.718;2023-05-11T03:25:33;101252.19;;;13.47;100.00
48053;BME280;33824;51.600;5.718;2023-05-11T03:28:00;101255.69;;;13.48;100.00
48053;BME280;33824;51.600;5.718;2023-05-11T03:30:27;101268.25;;;13.47;100.00
48053;BME280;33824;51.600;5.718;2023-05-11T03:32:53;101264.03;;;13.53;100.00
48053;BME280;33824;51.600;5.718;2023-05-11T03:35:21;101264.31;;;13.58;100.00
48053;BME280;33824;51.600;5.718;2023-05-11T03:37:48;101262.75;;;13.63;100.00
48053;BME280;33824;51.600;5.718;2023-05-11T03:40:16;101270.88;;;13.70;100.00
48053;BME280;33824;51.600;5.718;2023-05-11T03:42:44;101264.59;;;13.77;100.00
48053;BME280;33824;51.600;5.718;2023-05-11T03:45:12;101260.06;;;13.78;100.00
48053;BME280;33824;51.600;5.718;2023-05-11T03:47:40;101261.91;;;13.77;100.00
48053;BME280;33824;51.600;5.718;2023-05-11T03:50:06;101264.13;;;13.74;100.00
48053;BME280;33824;51.600;5.718;2023-05-11T03:52:34;101260.53;;;13.67;100.00
48053;BME280;33824;51.600;5.718;2023-05-11T03:55:00;101257.75;;;13.60;100.00
48053;BME280;33824;51.600;5.718;2023-05-11T03:57:26;101259.97;;;13.57;100.00
48053;BME280;33824;51.600;5.718;2023-05-11T03:59:55;101259.13;;;13.56;100.00
48053;BME280;33824;51.600;5.718;2023-05-11T04:02:20;101257.84;;;13.52;100.00
48053;BME280;33824;51.600;5.718;2023-05-11T04:04:49;101257.47;;;13.55;100.00
48053;BME280;33824;51.600;5.718;2023-05-11T04:07:15;101258.59;;;13.61;100.00
48053;BME280;33824;51.600;5.718;2023-05-11T04:09:40;101254.06;;;13.61;100.00
48053;BME280;33824;51.600;5.718;2023-05-11T04:12:06;101263.56;;;13.64;100.00
48053;BME280;33824;51.600;5.718;2023-05-11T04:14:32;101258.69;;;13.67;100.00
48053;BME280;33824;51.600;5.718;2023-05-11T04:17:00;101266.72;;;13.67;100.00
48053;BME280;33824;51.600;5.718;2023-05-11T04:19:26;101268.19;;;13.70;100.00
48053;BME280;33824;51.600;5.718;2023-05-11T04:21:51;101267.19;;;13.71;100.00
48053;BME280;33824;51.600;5.718;2023-05-11T04:24:17;101266.63;;;13.75;100.00
48053;BME280;33824;51.600;5.718;2023-05-11T04:26:43;101268.38;;;13.83;100.00
48053;BME280;33824;51.600;5.718;2023-05-11T04:29:09;101269.31;;;13.90;100.00
48053;BME280;33824;51.600;5.718;2023-05-11T04:31:35;101269.22;;;13.98;100.00
48053;BME280;33824;51.600;5.718;2023-05-11T04:34:00;101266.00;;;14.03;100.00
48053;BME280;33824;51.600;5.718;2023-05-11T04:36:26;101260.88;;;14.08;100.00
48053;BME280;33824;51.600;5.718;2023-05-11T04:38:51;101269.13;;;14.06;100.00
48053;BME280;33824;51.600;5.718;2023-05-11T04:41:17;101264.31;;;14.02;100.00
48053;BME280;33824;51.600;5.718;2023-05-11T04:43:43;101276.16;;;14.07;100.00
48053;BME280;33824;51.600;5.718;2023-05-11T04:46:09;101267.81;;;14.17;100.00
48053;BME280;33824;51.600;5.718;2023-05-11T04:48:35;101271.03;;;14.27;100.00
48053;BME280;33824;51.600;5.718;2023-05-11T04:51:04;101265.75;;;14.33;100.00
48053;BME280;33824;51.600;5.718;2023-05-11T04:53:30;101271.69;;;14.44;100.00
48053;BME280;33824;51.600;5.718;2023-05-11T04:55:56;101269.28;;;14.49;100.00
48053;BME280;33824;51.600;5.718;2023-05-11T04:58:21;101277.94;;;14.51;100.00
48053;BME280;33824;51.600;5.718;2023-05-11T05:00:47;101277.22;;;14.57;100.00
48053;BME280;33824;51.600;5.718;2023-05-11T05:03:12;101273.69;;;14.56;100.00
48053;BME280;33824;51.600;5.718;2023-05-11T05:05:38;101276.09;;;14.51;100.00
48053;BME280;33824;51.600;5.718;2023-05-11T05:08:03;101285.28;;;14.42;100.00
48053;BME280;33824;51.600;5.718;2023-05-11T05:10:29;101278.91;;;14.43;100.00
48053;BME280;33824;51.600;5.718;2023-05-11T05:12:54;101285.94;;;14.44;100.00
48053;BME280;33824;51.600;5.718;2023-05-11T05:15:20;101284.81;;;14.53;100.00
48053;BME280;33824;51.600;5.718;2023-05-11T05:17:46;101282.59;;;14.57;100.00
48053;BME280;33824;51.600;5.718;2023-05-11T05:20:11;101294.84;;;14.66;100.00
48053;BME280;33824;51.600;5.718;2023-05-11T05:22:37;101296.97;;;14.70;100.00
48053;BME280;33824;51.600;5.718;2023-05-11T05:25:02;101293.72;;;14.75;100.00
48053;BME280;33824;51.600;5.718;2023-05-11T05:27:28;101299.25;;;14.73;100.00
48053;BME280;33824;51.600;5.718;2023-05-11T05:29:54;101302.78;;;14.74;100.00
48053;BME280;33824;51.600;5.718;2023-05-11T05:32:19;101305.03;;;14.70;100.00
48053;BME280;33824;51.600;5.718;2023-05-11T05:34:45;101302.28;;;14.64;100.00
48053;BME280;33824;51.600;5.718;2023-05-11T05:37:13;101309.09;;;14.66;100.00
48053;BME280;33824;51.600;5.718;2023-05-11T05:39:39;101305.69;;;14.58;100.00
48053;BME280;33824;51.600;5.718;2023-05-11T05:42:04;101307.75;;;14.56;100.00
48053;BME280;33824;51.600;5.718;2023-05-11T05:44:30;101308.97;;;14.53;100.00
48053;BME280;33824;51.600;5.718;2023-05-11T05:46:56;101314.22;;;14.47;100.00
48053;BME280;33824;51.600;5.718;2023-05-11T05:49:21;101314.16;;;14.40;100.00
48053;BME280;33824;51.600;5.718;2023-05-11T05:51:47;101312.75;;;14.44;100.00
48053;BME280;33824;51.600;5.718;2023-05-11T05:54:15;101319.81;;;14.45;100.00
48053;BME280;33824;51.600;5.718;2023-05-11T05:56:40;101319.94;;;14.58;100.00
48053;BME280;33824;51.600;5.718;2023-05-11T05:59:06;101312.44;;;14.68;100.00
48053;BME280;33824;51.600;5.718;2023-05-11T06:01:34;101324.91;;;14.76;100.00
48053;BME280;33824;51.600;5.718;2023-05-11T06:04:00;101324.09;;;14.75;100.00
48053;BME280;33824;51.600;5.718;2023-05-11T06:06:25;101327.66;;;14.82;100.00
48053;BME280;33824;51.600;5.718;2023-05-11T06:08:52;101327.84;;;14.81;100.00
48053;BME280;33824;51.600;5.718;2023-05-11T06:11:17;101326.66;;;14.83;100.00
48053;BME280;33824;51.600;5.718;2023-05-11T06:13:43;101325.38;;;14.79;100.00
48053;BME280;33824;51.600;5.718;2023-05-11T06:16:08;101318.66;;;14.90;100.00
48053;BME280;33824;51.600;5.718;2023-05-11T06:18:34;101322.69;;;15.01;100.00
48053;BME280;33824;51.600;5.718;2023-05-11T06:20:59;101324.59;;;15.07;100.00
48053;BME280;33824;51.600;5.718;2023-05-11T06:23:25;101331.91;;;15.13;100.00
48053;BME280;33824;51.600;5.718;2023-05-11T06:25:51;101333.91;;;15.25;100.00
48053;BME280;33824;51.600;5.718;2023-05-11T06:28:17;101343.69;;;15.33;100.00
48053;BME280;33824;51.600;5.718;2023-05-11T06:30:42;101340.03;;;15.41;100.00
48053;BME280;33824;51.600;5.718;2023-05-11T06:33:08;101345.75;;;15.52;100.00
48053;BME280;33824;51.600;5.718;2023-05-11T06:35:35;101344.50;;;15.55;100.00
48053;BME280;33824;51.600;5.718;2023-05-11T06:38:01;101345.97;;;15.57;100.00
48053;BME280;33824;51.600;5.718;2023-05-11T06:40:26;101336.09;;;15.64;100.00
48053;BME280;33824;51.600;5.718;2023-05-11T06:42:52;101348.78;;;15.70;100.00
48053;BME280;33824;51.600;5.718;2023-05-11T06:45:17;101345.50;;;15.75;100.00
48053;BME280;33824;51.600;5.718;2023-05-11T06:47:43;101348.25;;;15.81;100.00
48053;BME280;33824;51.600;5.718;2023-05-11T06:50:08;101343.31;;;15.85;100.00
48053;BME280;33824;51.600;5.718;2023-05-11T06:52:34;101341.16;;;15.74;100.00
48053;BME280;33824;51.600;5.718;2023-05-11T06:55:00;101346.94;;;15.71;100.00
48053;BME280;33824;51.600;5.718;2023-05-11T06:57:26;101352.78;;;15.81;100.00
48053;BME280;33824;51.600;5.718;2023-05-11T06:59:54;101351.56;;;15.83;100.00
48053;BME280;33824;51.600;5.718;2023-05-11T07:02:20;101355.81;;;15.99;100.00
48053;BME280;33824;51.600;5.718;2023-05-11T07:04:45;101352.13;;;16.07;100.00
48053;BME280;33824;51.600;5.718;2023-05-11T07:07:11;101351.13;;;16.14;100.00
48053;BME280;33824;51.600;5.718;2023-05-11T07:09:36;101346.63;;;16.21;100.00
48053;BME280;33824;51.600;5.718;2023-05-11T07:12:02;101355.38;;;16.30;100.00
48053;BME280;33824;51.600;5.718;2023-05-11T07:14:28;101358.50;;;16.33;100.00
48053;BME280;33824;51.600;5.718;2023-05-11T07:16:53;101355.03;;;16.40;100.00
48053;BME280;33824;51.600;5.718;2023-05-11T07:19:19;101358.75;;;16.45;100.00
48053;BME280;33824;51.600;5.718;2023-05-11T07:21:45;101356.06;;;16.45;100.00
48053;BME280;33824;51.600;5.718;2023-05-11T07:24:10;101350.69;;;16.45;100.00
48053;BME280;33824;51.600;5.718;2023-05-11T07:26:36;101360.63;;;16.51;100.00
48053;BME280;33824;51.600;5.718;2023-05-11T07:29:02;101354.50;;;16.57;100.00
48053;BME280;33824;51.600;5.718;2023-05-11T07:31:28;101361.56;;;16.65;100.00
48053;BME280;33824;51.600;5.718;2023-05-11T07:33:54;101355.38;;;16.71;100.00
48053;BME280;33824;51.600;5.718;2023-05-11T07:36:20;101367.78;;;16.65;100.00
48053;BME280;33824;51.600;5.718;2023-05-11T07:38:46;101358.66;;;16.60;100.00
48053;BME280;33824;51.600;5.718;2023-05-11T07:41:11;101363.53;;;16.50;100.00
48053;BME280;33824;51.600;5.718;2023-05-11T07:43:37;101363.97;;;16.47;100.00
48053;BME280;33824;51.600;5.718;2023-05-11T07:46:03;101357.16;;;16.51;100.00
48053;BME280;33824;51.600;5.718;2023-05-11T07:48:28;101366.22;;;16.43;100.00
48053;BME280;33824;51.600;5.718;2023-05-11T07:50:54;101370.53;;;16.38;100.00
48053;BME280;33824;51.600;5.718;2023-05-11T07:53:19;101361.44;;;16.45;100.00
48053;BME280;33824;51.600;5.718;2023-05-11T07:55:45;101359.06;;;16.57;100.00
48053;BME280;33824;51.600;5.718;2023-05-11T07:58:11;101366.75;;;16.66;100.00
48053;BME280;33824;51.600;5.718;2023-05-11T08:00:36;101361.41;;;16.79;100.00
48053;BME280;33824;51.600;5.718;2023-05-11T08:03:02;101362.28;;;16.93;100.00
48053;BME280;33824;51.600;5.718;2023-05-11T08:05:29;101358.81;;;17.12;100.00
48053;BME280;33824;51.600;5.718;2023-05-11T08:07:57;101354.06;;;17.21;100.00
48053;BME280;33824;51.600;5.718;2023-05-11T08:10:22;101361.34;;;17.34;100.00
48053;BME280;33824;51.600;5.718;2023-05-11T08:12:48;101364.03;;;17.40;100.00
48053;BME280;33824;51.600;5.718;2023-05-11T08:15:14;101366.34;;;17.56;99.85
48053;BME280;33824;51.600;5.718;2023-05-11T08:17:39;101368.41;;;17.48;99.03
48053;BME280;33824;51.600;5.718;2023-05-11T08:20:08;101367.78;;;17.46;98.49
48053;BME280;33824;51.600;5.718;2023-05-11T08:22:33;101369.06;;;17.63;98.33
48053;BME280;33824;51.600;5.718;2023-05-11T08:24:59;101363.88;;;17.74;97.82
48053;BME280;33824;51.600;5.718;2023-05-11T08:27:25;101357.84;;;17.92;97.70
48053;BME280;33824;51.600;5.718;2023-05-11T08:29:50;101365.69;;;18.13;97.28
48053;BME280;33824;51.600;5.718;2023-05-11T08:32:16;101360.66;;;18.30;97.22
48053;BME280;33824;51.600;5.718;2023-05-11T08:34:42;101361.94;;;18.21;95.33
48053;BME280;33824;51.600;5.718;2023-05-11T08:37:08;101362.34;;;18.25;95.14
48053;BME280;33824;51.600;5.718;2023-05-11T08:39:34;101354.03;;;18.33;95.01
48053;BME280;33824;51.600;5.718;2023-05-11T08:42:02;101356.69;;;18.39;94.51
48053;BME280;33824;51.600;5.718;2023-05-11T08:44:31;101355.03;;;18.38;94.31
48053;BME280;33824;51.600;5.718;2023-05-11T08:46:57;101357.50;;;18.46;93.91
48053;BME280;33824;51.600;5.718;2023-05-11T08:49:24;101350.22;;;18.47;93.27
48053;BME280;33824;51.600;5.718;2023-05-11T08:51:50;101353.13;;;18.58;93.28
48053;BME280;33824;51.600;5.718;2023-05-11T08:54:16;101354.75;;;18.66;93.22
48053;BME280;33824;51.600;5.718;2023-05-11T08:56:42;101357.00;;;18.76;92.02
48053;BME280;33824;51.600;5.718;2023-05-11T08:59:08;101356.47;;;18.54;90.08
48053;BME280;33824;51.600;5.718;2023-05-11T09:01:35;101355.88;;;18.52;90.75
48053;BME280;33824;51.600;5.718;2023-05-11T09:04:02;101352.81;;;18.80;90.60
48053;BME280;33824;51.600;5.718;2023-05-11T09:06:29;101354.03;;;18.90;88.76
48053;BME280;33824;51.600;5.718;2023-05-11T09:08:56;101351.47;;;19.02;88.75
48053;BME280;33824;51.600;5.718;2023-05-11T09:11:22;101354.34;;;18.62;88.18
48053;BME280;33824;51.600;5.718;2023-05-11T09:13:50;101350.38;;;18.65;88.88
48053;BME280;33824;51.600;5.718;2023-05-11T09:16:15;101361.22;;;18.58;88.48
48053;BME280;33824;51.600;5.718;2023-05-11T09:18:51;101353.84;;;18.21;87.11
48053;BME280;33824;51.600;5.718;2023-05-11T09:21:18;101362.16;;;18.26;89.13
48053;BME280;33824;51.600;5.718;2023-05-11T09:23:44;101368.69;;;18.50;89.28
48053;BME280;33824;51.600;5.718;2023-05-11T09:26:14;101355.44;;;18.55;89.55
48053;BME280;33824;51.600;5.718;2023-05-11T09:28:50;101362.28;;;18.38;89.37
48053;BME280;33824;51.600;5.718;2023-05-11T09:34:18;101365.75;;;17.74;88.13
48053;BME280;33824;51.600;5.718;2023-05-11T09:36:51;101362.63;;;17.77;89.27
48053;BME280;33824;51.600;5.718;2023-05-11T09:39:17;101362.19;;;17.93;89.40
48053;BME280;33824;51.600;5.718;2023-05-11T09:41:45;101355.78;;;17.88;89.65
48053;BME280;33824;51.600;5.718;2023-05-11T09:44:14;101360.34;;;17.74;90.01
48053;BME280;33824;51.600;5.718;2023-05-11T09:46:43;101364.06;;;17.99;89.72
48053;BME280;33824;51.600;5.718;2023-05-11T09:49:10;101363.44;;;17.97;89.23
48053;BME280;33824;51.600;5.718;2023-05-11T09:51:37;101351.56;;;18.25;88.51
48053;BME280;33824;51.600;5.718;2023-05-11T09:54:20;101373.13;;;18.31;87.71
48053;BME280;33824;51.600;5.718;2023-05-11T09:56:48;101360.03;;;18.35;88.52
48053;BME280;33824;51.600;5.718;2023-05-11T09:59:14;101358.78;;;18.31;88.48
48053;BME280;33824;51.600;5.718;2023-05-11T10:01:40;101365.25;;;18.23;87.75
48053;BME280;33824;51.600;5.718;2023-05-11T10:04:06;101362.94;;;18.27;88.18
48053;BME280;33824;51.600;5.718;2023-05-11T10:06:46;101365.13;;;17.92;86.69
48053;BME280;33824;51.600;5.718;2023-05-11T10:09:13;101368.63;;;18.05;88.05
48053;BME280;33824;51.600;5.718;2023-05-11T10:11:43;101358.88;;;18.11;86.32
48053;BME280;33824;51.600;5.718;2023-05-11T10:14:11;101355.75;;;18.01;87.30
48053;BME280;33824;51.600;5.718;2023-05-11T10:16:39;101361.97;;;18.14;86.91
48053;BME280;33824;51.600;5.718;2023-05-11T10:19:06;101356.16;;;18.11;86.42
48053;BME280;33824;51.600;5.718;2023-05-11T10:21:33;101356.31;;;18.22;86.50
48053;BME280;33824;51.600;5.718;2023-05-11T10:23:59;101364.41;;;18.22;86.68
48053;BME280;33824;51.600;5.718;2023-05-11T10:26:25;101355.44;;;18.42;87.30
48053;BME280;33824;51.600;5.718;2023-05-11T10:28:51;101356.88;;;18.51;86.17
48053;BME280;33824;51.600;5.718;2023-05-11T10:31:19;101356.06;;;18.44;85.41
48053;BME280;33824;51.600;5.718;2023-05-11T10:33:50;101365.84;;;18.32;84.79
48053;BME280;33824;51.600;5.718;2023-05-11T10:36:17;101360.47;;;18.32;86.37
48053;BME280;33824;51.600;5.718;2023-05-11T10:38:42;101358.16;;;18.35;86.72
48053;BME280;33824;51.600;5.718;2023-05-11T10:41:44;101365.50;;;18.02;84.37
48053;BME280;33824;51.600;5.718;2023-05-11T10:44:45;101360.06;;;18.15;86.08
48053;BME280;33824;51.600;5.718;2023-05-11T10:50:14;101361.22;;;18.45;85.55
48053;BME280;33824;51.600;5.718;2023-05-11T10:53:05;101359.16;;;18.47;86.20
48053;BME280;33824;51.600;5.718;2023-05-11T10:58:23;101359.00;;;18.36;83.11
48053;BME280;33824;51.600;5.718;2023-05-11T11:03:56;101355.03;;;18.38;84.05
48053;BME280;33824;51.600;5.718;2023-05-11T11:06:22;101358.09;;;18.61;84.29
48053;BME280;33824;51.600;5.718;2023-05-11T11:09:05;101359.44;;;18.33;83.62
48053;BME280;33824;51.600;5.718;2023-05-11T11:14:05;101356.53;;;18.28;84.20
48053;BME280;33824;51.600;5.718;2023-05-11T11:16:32;101358.63;;;18.12;84.45
48053;BME280;33824;51.600;5.718;2023-05-11T11:21:55;101343.19;;;18.39;85.66
48053;BME280;33824;51.600;5.718;2023-05-11T11:27:06;101350.69;;;18.31;84.68
48053;BME280;33824;51.600;5.718;2023-05-11T11:29:34;101346.75;;;18.33;84.75
48053;BME280;33824;51.600;5.718;2023-05-11T11:34:44;101349.72;;;18.18;85.48
48053;BME280;33824;51.600;5.718;2023-05-11T11:37:10;101348.03;;;18.24;85.50
48053;BME280;33824;51.600;5.718;2023-05-11T11:42:07;101351.56;;;18.25;85.40
48053;BME280;33824;51.600;5.718;2023-05-11T11:44:34;101349.94;;;18.10;85.01
48053;BME280;33824;51.600;5.718;2023-05-11T11:49:37;101354.50;;;18.03;86.14
48053;BME280;33824;51.600;5.718;2023-05-11T11:52:03;101347.44;;;18.09;86.60
48053;BME280;33824;51.600;5.718;2023-05-11T11:54:43;101354.75;;;17.95;85.30
48053;BME280;33824;51.600;5.718;2023-05-11T12:00:08;101357.63;;;18.00;86.09
48053;BME280;33824;51.600;5.718;2023-05-11T12:02:44;101354.94;;;17.94;86.16
48053;BME280;33824;51.600;5.718;2023-05-11T12:05:16;101353.88;;;18.01;86.69
48053;BME280;33824;51.600;5.718;2023-05-11T12:07:48;101360.31;;;18.00;86.60
48053;BME280;33824;51.600;5.718;2023-05-11T12:10:16;101358.06;;;17.91;86.50
48053;BME280;33824;51.600;5.718;2023-05-11T12:12:50;101357.22;;;17.70;85.67
48053;BME280;33824;51.600;5.718;2023-05-11T12:15:30;101362.63;;;17.64;86.29
48053;BME280;33824;51.600;5.718;2023-05-11T12:17:58;101359.72;;;17.72;87.12
48053;BME280;33824;51.600;5.718;2023-05-11T12:20:27;101354.91;;;17.54;87.47
48053;BME280;33824;51.600;5.718;2023-05-11T12:22:52;101357.41;;;17.56;88.13
48053;BME280;33824;51.600;5.718;2023-05-11T12:25:18;101352.69;;;17.64;88.25
48053;BME280;33824;51.600;5.718;2023-05-11T12:30:20;101351.63;;;17.85;88.34
48053;BME280;33824;51.600;5.718;2023-05-11T12:32:46;101352.44;;;17.92;88.94
48053;BME280;33824;51.600;5.718;2023-05-11T12:35:11;101346.81;;;18.00;88.98
48053;BME280;33824;51.600;5.718;2023-05-11T12:37:41;101359.06;;;18.09;88.81
48053;BME280;33824;51.600;5.718;2023-05-11T12:40:11;101345.94;;;18.19;89.10
48053;BME280;33824;51.600;5.718;2023-05-11T12:42:37;101345.94;;;18.26;88.48
48053;BME280;33824;51.600;5.718;2023-05-11T12:45:04;101339.09;;;18.23;88.01
48053;BME280;33824;51.600;5.718;2023-05-11T12:47:30;101340.78;;;18.18;87.86
48053;BME280;33824;51.600;5.718;2023-05-11T12:49:56;101343.91;;;18.08;87.35
48053;BME280;33824;51.600;5.718;2023-05-11T12:52:23;101343.69;;;18.03;87.92
48053;BME280;33824;51.600;5.718;2023-05-11T12:54:49;101345.56;;;18.09;87.86
48053;BME280;33824;51.600;5.718;2023-05-11T12:57:28;101338.50;;;18.21;88.19
48053;BME280;33824;51.600;5.718;2023-05-11T13:00:10;101338.88;;;18.32;88.70
48053;BME280;33824;51.600;5.718;2023-05-11T13:02:49;101335.25;;;18.57;88.78
48053;BME280;33824;51.600;5.718;2023-05-11T13:05:17;101334.13;;;18.78;87.84
48053;BME280;33824;51.600;5.718;2023-05-11T13:07:43;101336.34;;;18.88;87.81
48053;BME280;33824;51.600;5.718;2023-05-11T13:10:13;101338.81;;;18.96;86.57
48053;BME280;33824;51.600;5.718;2023-05-11T13:12:49;101334.63;;;19.00;86.52
48053;BME280;33824;51.600;5.718;2023-05-11T13:15:16;101329.88;;;19.27;86.70
48053;BME280;33824;51.600;5.718;2023-05-11T13:17:43;101334.38;;;19.39;86.11
48053;BME280;33824;51.600;5.718;2023-05-11T13:20:33;101329.41;;;19.36;85.26
48053;BME280;33824;51.600;5.718;2023-05-11T13:23:10;101324.47;;;19.27;85.01
48053;BME280;33824;51.600;5.718;2023-05-11T13:28:13;101319.38;;;19.12;83.62